Time;durP1;ratioP1;P1;durP2;ratioP2;P2;SDS_P1;SDS_P2;PMS_P1;PMS_P2;Temp;Humidity;BMP_temperature;BMP_pressure;BME280_temperature;BME280_humidity;BME280_pressure;Samples;Min_cycle;Max_cycle;Signal;HPM_P1;HPM_P2
2023/05/23 00:02:15;;;;;;;26.17;9.37;;;17.00;99.90;;;;;;5060023;28;20183;-91
2023/05/23 00:04:44;;;;;;;31.23;10.17;;;17.00;99.90;;;;;;5062147;28;20190;-85
2023/05/23 00:07:10;;;;;;;34.33;10.93;;;17.00;99.90;;;;;;5079024;28;20273;-91
2023/05/23 00:09:37;;;;;;;33.63;11.03;;;17.00;99.90;;;;;;5063125;28;20178;-86
2023/05/23 00:12:03;;;;;;;28.53;11.30;;;17.10;99.90;;;;;;5073048;28;20239;-91
2023/05/23 00:14:32;;;;;;;34.10;11.27;;;17.10;99.90;;;;;;5081975;28;20205;-85
2023/05/23 00:17:02;;;;;;;41.03;12.40;;;17.10;99.90;;;;;;5083348;28;20179;-92
2023/05/23 00:30:37;;;;;;;34.83;11.40;;;17.10;99.90;;;;;;5104619;27;20271;-91
2023/05/23 00:33:03;;;;;;;25.07;11.77;;;17.10;99.90;;;;;;5102386;27;20182;-86
2023/05/23 00:35:29;;;;;;;36.87;12.17;;;17.00;99.90;;;;;;5085131;28;20194;-87
2023/05/23 00:37:56;;;;;;;29.90;11.67;;;17.10;99.90;;;;;;5084073;28;21660;-92
2023/05/23 00:40:23;;;;;;;30.67;11.40;;;17.00;99.90;;;;;;5101869;27;20659;-86
2023/05/23 00:42:49;;;;;;;26.20;11.43;;;16.90;99.90;;;;;;5065696;28;20182;-89
2023/05/23 00:45:17;;;;;;;33.60;11.70;;;16.90;99.90;;;;;;5065972;28;20182;-84
2023/05/23 00:47:46;;;;;;;29.50;11.60;;;16.90;99.90;;;;;;5099043;27;20191;-89
2023/05/23 00:50:15;;;;;;;28.33;11.93;;;16.90;99.90;;;;;;5097920;28;20186;-90
2023/05/23 00:52:44;;;;;;;23.30;11.17;;;16.90;99.90;;;;;;5093272;28;20193;-87
2023/05/23 00:55:12;;;;;;;26.07;11.37;;;16.90;99.90;;;;;;5070967;28;20205;-92
2023/05/23 00:57:44;;;;;;;30.53;12.47;;;16.90;99.90;;;;;;5095334;28;20196;-92
2023/05/23 01:00:14;;;;;;;29.57;11.70;;;16.90;99.90;;;;;;5095101;28;20211;-88
2023/05/23 01:02:46;;;;;;;24.27;11.33;;;16.90;99.90;;;;;;5076919;28;20178;-88
2023/05/23 01:05:21;;;;;;;27.10;11.90;;;16.90;99.90;;;;;;5065440;28;20179;-96
2023/05/23 01:07:49;;;;;;;27.60;11.50;;;16.80;99.90;;;;;;5080834;28;20276;-87
2023/05/23 01:10:28;;;;;;;32.63;11.47;;;16.80;99.90;;;;;;5073381;28;20559;-95
2023/05/23 01:13:29;;;;;;;36.90;12.00;;;16.80;99.90;;;;;;5072356;28;20193;-96
2023/05/23 01:16:40;;;;;;;39.77;12.40;;;16.80;99.90;;;;;;5125595;27;20181;-96
2023/05/23 01:19:59;;;;;;;29.03;10.33;;;16.80;99.90;;;;;;5117105;27;20203;-85
2023/05/23 01:22:54;;;;;;;36.13;11.30;;;16.70;99.90;;;;;;5065037;28;20197;-87
2023/05/23 01:25:38;;;;;;;32.37;12.17;;;16.80;99.90;;;;;;5095691;28;20259;-96
2023/05/23 01:28:57;;;;;;;30.87;11.53;;;16.80;99.90;;;;;;5072643;28;20579;-87
2023/05/23 01:31:28;;;;;;;34.00;12.30;;;16.70;99.90;;;;;;5095653;28;20179;-87
2023/05/23 01:33:56;;;;;;;37.00;12.90;;;16.70;99.90;;;;;;5095937;28;20210;-88
2023/05/23 01:36:23;;;;;;;31.57;13.00;;;16.80;99.90;;;;;;5075206;28;20178;-94
2023/05/23 01:38:50;;;;;;;37.17;13.07;;;16.80;99.90;;;;;;5066585;28;20232;-88
2023/05/23 01:41:16;;;;;;;26.57;11.43;;;16.80;99.90;;;;;;5067302;28;20194;-87
2023/05/23 01:43:44;;;;;;;29.47;12.47;;;16.80;99.90;;;;;;5092632;28;20270;-92
2023/05/23 01:46:11;;;;;;;26.50;11.63;;;16.80;99.90;;;;;;5114576;27;20209;-87
2023/05/23 01:48:39;;;;;;;36.30;12.27;;;16.80;99.90;;;;;;5074418;28;20182;-93
2023/05/23 01:51:06;;;;;;;29.13;11.53;;;16.90;99.90;;;;;;5120711;27;20224;-88
2023/05/23 01:53:34;;;;;;;23.00;10.83;;;16.80;99.90;;;;;;5064342;28;20186;-92
2023/05/23 01:56:02;;;;;;;26.60;10.37;;;16.80;99.90;;;;;;5085129;28;20181;-88
2023/05/23 01:58:29;;;;;;;26.90;11.17;;;16.80;99.90;;;;;;5063539;28;20216;-87
2023/05/23 02:00:56;;;;;;;30.10;11.23;;;16.80;99.90;;;;;;5066749;28;20189;-96
2023/05/23 02:03:24;;;;;;;32.63;12.30;;;16.80;99.90;;;;;;5083114;28;20651;-94
2023/05/23 02:05:51;;;;;;;36.57;11.03;;;16.80;99.90;;;;;;5065495;28;20615;-89
2023/05/23 02:08:21;;;;;;;31.47;10.87;;;16.90;99.90;;;;;;5067338;28;20532;-88
2023/05/23 02:10:48;;;;;;;34.27;10.23;;;16.80;99.90;;;;;;5067938;28;20186;-92
2023/05/23 02:13:15;;;;;;;28.13;10.63;;;16.80;99.90;;;;;;5067658;28;20659;-87
2023/05/23 02:15:41;;;;;;;29.07;11.30;;;16.70;99.90;;;;;;5080255;28;20221;-93
2023/05/23 02:18:08;;;;;;;33.33;11.07;;;16.70;99.90;;;;;;5065499;28;20178;-94
2023/05/23 02:20:34;;;;;;;33.40;11.00;;;16.70;99.90;;;;;;5065057;28;20175;-94
2023/05/23 02:23:01;;;;;;;28.83;11.20;;;16.70;99.90;;;;;;5109532;28;20741;-86
2023/05/23 02:25:27;;;;;;;35.83;11.77;;;16.80;99.90;;;;;;5077015;28;20208;-92
2023/05/23 02:27:54;;;;;;;30.00;10.43;;;16.80;99.90;;;;;;5072453;28;20187;-95
2023/05/23 02:30:20;;;;;;;28.90;11.53;;;16.70;99.90;;;;;;5067854;28;20192;-95
2023/05/23 02:32:52;;;;;;;28.77;11.53;;;16.70;99.90;;;;;;5075865;28;20190;-94
2023/05/23 02:35:24;;;;;;;25.60;11.10;;;16.70;99.90;;;;;;5077440;28;20197;-96
2023/05/23 02:37:50;;;;;;;23.23;10.70;;;16.70;99.90;;;;;;5073291;28;20183;-86
2023/05/23 02:40:18;;;;;;;26.03;10.60;;;16.80;99.90;;;;;;5072815;28;20178;-96
2023/05/23 02:42:56;;;;;;;37.10;11.80;;;16.70;99.90;;;;;;5075859;28;20181;-94
2023/05/23 02:45:23;;;;;;;34.47;11.80;;;16.70;99.90;;;;;;5118780;27;20185;-87
2023/05/23 02:47:50;;;;;;;27.07;10.43;;;16.80;99.90;;;;;;5096255;27;20225;-83
2023/05/23 02:50:16;;;;;;;30.13;10.57;;;16.80;99.90;;;;;;5070451;28;20272;-92
2023/05/23 02:52:48;;;;;;;29.10;11.80;;;16.80;99.90;;;;;;5086832;28;20260;-90
2023/05/23 02:55:14;;;;;;;31.47;11.53;;;16.80;99.90;;;;;;5055905;28;20637;-86
2023/05/23 02:57:45;;;;;;;26.37;10.33;;;16.80;99.90;;;;;;5100095;27;21995;-95
2023/05/23 03:00:18;;;;;;;32.37;10.90;;;16.80;99.90;;;;;;5065130;28;20183;-96
2023/05/23 03:02:45;;;;;;;33.97;11.07;;;16.80;99.90;;;;;;5067189;28;20252;-92
2023/05/23 03:05:17;;;;;;;26.03;10.63;;;16.80;99.90;;;;;;5063428;28;20202;-92
2023/05/23 03:07:45;;;;;;;27.10;10.93;;;16.80;99.90;;;;;;5105740;27;20195;-94
2023/05/23 03:10:11;;;;;;;28.77;10.67;;;16.80;99.90;;;;;;5100995;27;20192;-92
2023/05/23 03:12:38;;;;;;;33.10;11.20;;;16.90;99.90;;;;;;5073635;28;20208;-86
2023/05/23 03:15:05;;;;;;;35.27;12.17;;;16.90;99.90;;;;;;5074171;28;20213;-91
2023/05/23 03:17:32;;;;;;;32.43;11.57;;;16.90;99.90;;;;;;5100150;27;20178;-95
2023/05/23 03:20:01;;;;;;;34.17;11.57;;;16.90;99.90;;;;;;5073106;28;20197;-85
2023/05/23 03:22:27;;;;;;;28.80;11.27;;;16.90;99.90;;;;;;5067179;28;20217;-87
2023/05/23 03:24:56;;;;;;;32.87;11.77;;;16.90;99.90;;;;;;5103424;28;20191;-84
2023/05/23 03:27:22;;;;;;;37.17;11.57;;;16.90;99.90;;;;;;5089418;28;20247;-85
2023/05/23 03:29:49;;;;;;;28.63;11.10;;;17.00;99.90;;;;;;5067200;28;20218;-90
2023/05/23 03:32:15;;;;;;;27.67;11.53;;;17.00;99.90;;;;;;5065663;28;20340;-85
2023/05/23 03:34:41;;;;;;;37.77;12.10;;;17.00;99.90;;;;;;5098215;28;20824;-94
2023/05/23 03:37:11;;;;;;;32.67;12.03;;;17.00;99.90;;;;;;5075645;28;20227;-91
2023/05/23 03:39:37;;;;;;;34.43;11.87;;;17.00;99.90;;;;;;5068991;28;20183;-86
2023/05/23 03:42:04;;;;;;;36.40;11.57;;;17.10;99.90;;;;;;5085266;28;20204;-87
2023/05/23 03:44:31;;;;;;;35.67;11.03;;;17.10;99.90;;;;;;5061286;28;20592;-87
2023/05/23 03:46:58;;;;;;;29.90;11.10;;;17.10;99.90;;;;;;5085718;28;20178;-88
2023/05/23 03:49:24;;;;;;;32.60;10.63;;;17.20;99.90;;;;;;5066702;28;20192;-86
2023/05/23 03:51:57;;;;;;;23.17;10.67;;;17.30;99.90;;;;;;5088229;28;20224;-85
2023/05/23 03:54:23;;;;;;;30.73;10.73;;;17.30;99.90;;;;;;5068488;28;20483;-86
2023/05/23 03:56:50;;;;;;;34.63;10.87;;;17.30;99.90;;;;;;5096946;27;20178;-94
2023/05/23 03:59:17;;;;;;;27.00;10.67;;;17.30;99.90;;;;;;5077383;28;20566;-87
2023/05/23 04:01:45;;;;;;;32.00;10.77;;;17.30;99.90;;;;;;5082973;28;20601;-95
2023/05/23 04:04:15;;;;;;;29.33;11.50;;;17.40;99.90;;;;;;5094846;28;20205;-90
2023/05/23 04:06:43;;;;;;;29.40;11.17;;;17.40;99.90;;;;;;5067795;28;20243;-94
2023/05/23 04:09:10;;;;;;;20.80;10.10;;;17.40;99.90;;;;;;5071251;28;20189;-85
2023/05/23 04:11:37;;;;;;;26.30;10.27;;;17.50;99.90;;;;;;5068368;28;20210;-85
2023/05/23 04:14:07;;;;;;;31.77;11.10;;;17.50;99.90;;;;;;5105361;27;20213;-86
2023/05/23 04:16:34;;;;;;;35.87;10.80;;;17.50;99.90;;;;;;5098202;28;20794;-92
2023/05/23 04:19:04;;;;;;;34.77;10.43;;;17.50;99.90;;;;;;5079452;28;20220;-88
2023/05/23 04:21:31;;;;;;;33.43;9.77;;;17.60;99.90;;;;;;5086497;28;20174;-86
2023/05/23 04:23:58;;;;;;;33.10;10.07;;;17.60;99.90;;;;;;5090242;28;20877;-86
2023/05/23 04:26:25;;;;;;;29.10;8.53;;;17.60;99.90;;;;;;5066584;28;20209;-90
2023/05/23 04:28:53;;;;;;;22.57;7.97;;;17.60;99.90;;;;;;5096560;28;20201;-86
2023/05/23 04:31:25;;;;;;;23.97;8.50;;;17.60;99.90;;;;;;5099974;27;20662;-84
2023/05/23 04:33:52;;;;;;;33.13;8.03;;;17.70;99.90;;;;;;5100828;27;20178;-86
2023/05/23 04:36:18;;;;;;;27.77;8.50;;;17.70;99.90;;;;;;5061071;28;20185;-87
2023/05/23 04:38:45;;;;;;;28.57;7.90;;;17.70;99.90;;;;;;5078900;28;20244;-86
2023/05/23 04:41:11;;;;;;;20.30;6.97;;;17.80;99.90;;;;;;5064540;28;20181;-89
2023/05/23 04:43:41;;;;;;;30.60;7.90;;;17.80;99.90;;;;;;5087404;28;20182;-88
2023/05/23 04:46:12;;;;;;;24.30;8.23;;;17.80;99.90;;;;;;5066207;28;20220;-85
2023/05/23 04:48:39;;;;;;;31.90;7.67;;;17.90;99.90;;;;;;5075171;28;20179;-85
2023/05/23 04:51:07;;;;;;;25.33;7.33;;;17.90;99.90;;;;;;5065754;28;20482;-87
2023/05/23 04:53:35;;;;;;;30.30;7.90;;;18.00;99.90;;;;;;5057657;28;20186;-85
2023/05/23 04:56:02;;;;;;;30.60;7.57;;;18.00;99.90;;;;;;5089720;27;20209;-86
2023/05/23 04:58:28;;;;;;;23.13;6.63;;;18.00;99.90;;;;;;5082590;28;20170;-87
2023/05/23 05:00:54;;;;;;;24.17;7.07;;;18.00;99.90;;;;;;5095788;27;20194;-84
2023/05/23 05:03:23;;;;;;;27.47;6.57;;;18.00;99.90;;;;;;5099674;27;20185;-85
2023/05/23 05:05:50;;;;;;;24.23;7.23;;;18.10;99.90;;;;;;5078902;28;20189;-84
2023/05/23 05:08:18;;;;;;;20.50;5.97;;;18.10;99.90;;;;;;5074816;28;20293;-84
2023/05/23 05:10:45;;;;;;;23.57;6.73;;;18.10;99.90;;;;;;5062127;28;20194;-87
2023/05/23 05:13:11;;;;;;;23.97;6.70;;;18.20;99.90;;;;;;5112344;27;21237;-87
2023/05/23 05:15:37;;;;;;;23.47;7.07;;;18.20;99.90;;;;;;5079686;28;20210;-88
2023/05/23 05:18:04;;;;;;;22.23;6.90;;;18.30;99.90;;;;;;5069357;28;20670;-84
2023/05/23 05:20:30;;;;;;;24.53;7.03;;;18.30;99.90;;;;;;5107967;27;20182;-84
2023/05/23 05:22:57;;;;;;;26.47;7.47;;;18.40;99.90;;;;;;5073697;28;20210;-85
2023/05/23 05:25:23;;;;;;;23.73;7.13;;;18.40;99.90;;;;;;5098143;27;20243;-89
2023/05/23 05:27:51;;;;;;;21.40;7.50;;;18.40;99.90;;;;;;5063318;28;20277;-84
2023/05/23 05:30:17;;;;;;;26.10;7.37;;;18.50;99.90;;;;;;5062162;28;20189;-86
2023/05/23 05:32:45;;;;;;;27.60;7.33;;;18.60;99.90;;;;;;5060354;28;20186;-85
2023/05/23 05:35:14;;;;;;;24.80;7.23;;;18.70;99.90;;;;;;5076868;28;20583;-85
2023/05/23 05:37:41;;;;;;;29.10;8.10;;;18.80;99.90;;;;;;5057970;28;20178;-84
2023/05/23 05:40:08;;;;;;;26.67;7.27;;;18.80;99.90;;;;;;5061799;28;20181;-84
2023/05/23 05:42:35;;;;;;;25.93;7.63;;;18.90;99.90;;;;;;5079026;28;20277;-85
2023/05/23 05:45:01;;;;;;;23.87;7.23;;;18.90;99.90;;;;;;5079513;28;20190;-85
2023/05/23 05:47:27;;;;;;;26.40;7.20;;;18.90;99.90;;;;;;5061570;28;20209;-85
2023/05/23 05:49:53;;;;;;;25.90;7.23;;;19.00;99.90;;;;;;5075902;28;20194;-84
2023/05/23 05:52:20;;;;;;;26.70;7.97;;;19.00;99.90;;;;;;5090203;28;20206;-85
2023/05/23 05:54:46;;;;;;;30.17;7.57;;;19.00;99.90;;;;;;5077751;28;20298;-85
2023/05/23 05:57:12;;;;;;;28.03;7.60;;;19.00;99.90;;;;;;5076279;28;20189;-85
2023/05/23 05:59:39;;;;;;;23.40;7.00;;;19.00;99.90;;;;;;5076473;28;20174;-83
2023/05/23 06:02:07;;;;;;;25.40;7.13;;;19.10;99.90;;;;;;5079375;28;20182;-84
2023/05/23 06:04:33;;;;;;;34.63;6.93;;;19.10;99.90;;;;;;5059363;28;20597;-84
2023/05/23 06:06:59;;;;;;;27.77;6.80;;;19.10;99.90;;;;;;5064591;28;20192;-83
2023/05/23 06:09:26;;;;;;;25.43;6.57;;;19.10;99.90;;;;;;5062327;28;20240;-83
2023/05/23 06:11:52;;;;;;;30.97;7.00;;;19.10;99.90;;;;;;5081444;28;20187;-83
2023/05/23 06:14:18;;;;;;;25.17;5.93;;;19.10;99.90;;;;;;5065336;28;20234;-86
2023/05/23 06:16:44;;;;;;;31.93;7.30;;;19.10;99.90;;;;;;5065264;28;20302;-85
2023/05/23 06:19:11;;;;;;;39.10;6.70;;;19.20;99.90;;;;;;5101333;27;20181;-83
2023/05/23 06:21:37;;;;;;;28.67;6.47;;;19.20;99.90;;;;;;5064556;28;20194;-83
2023/05/23 06:24:03;;;;;;;29.57;6.60;;;19.20;99.90;;;;;;5064398;28;20286;-83
2023/05/23 06:26:30;;;;;;;26.50;6.83;;;19.20;99.90;;;;;;5054370;28;20190;-82
2023/05/23 06:28:56;;;;;;;22.13;6.23;;;19.30;99.90;;;;;;5066026;28;20193;-83
2023/05/23 06:31:22;;;;;;;27.63;6.07;;;19.30;99.90;;;;;;5076230;28;20928;-82
2023/05/23 06:33:48;;;;;;;24.70;6.30;;;19.30;99.90;;;;;;5095861;28;20303;-84
2023/05/23 06:36:15;;;;;;;28.40;6.50;;;19.30;99.90;;;;;;5061060;28;20193;-85
2023/05/23 06:38:41;;;;;;;23.90;5.97;;;19.30;99.90;;;;;;5065524;28;20193;-85
2023/05/23 06:41:07;;;;;;;22.70;5.83;;;19.40;99.90;;;;;;5081639;28;20189;-82
2023/05/23 06:43:34;;;;;;;27.17;6.97;;;19.40;99.90;;;;;;5096794;27;20213;-82
2023/05/23 06:46:00;;;;;;;28.47;6.30;;;19.40;99.90;;;;;;5058324;28;20227;-86
2023/05/23 06:48:26;;;;;;;29.10;6.70;;;19.50;99.90;;;;;;5069498;28;20192;-84
2023/05/23 06:50:52;;;;;;;24.07;6.60;;;19.50;99.90;;;;;;5096680;27;20645;-84
2023/05/23 06:53:19;;;;;;;29.03;6.43;;;19.60;99.90;;;;;;5073836;28;20272;-83
2023/05/23 06:55:45;;;;;;;25.33;6.30;;;19.60;99.90;;;;;;5080256;28;20198;-83
2023/05/23 06:58:12;;;;;;;27.87;6.20;;;19.60;99.90;;;;;;5082198;28;20182;-84
2023/05/23 07:00:38;;;;;;;28.23;6.20;;;19.70;99.90;;;;;;5058579;28;22346;-84
2023/05/23 07:03:07;;;;;;;25.17;7.20;;;19.70;99.90;;;;;;5098210;27;20213;-84
2023/05/23 07:05:35;;;;;;;27.37;6.33;;;19.80;99.90;;;;;;5068268;28;20205;-84
2023/05/23 07:08:01;;;;;;;30.47;7.03;;;19.80;99.90;;;;;;5085339;28;20193;-85
2023/05/23 07:10:27;;;;;;;23.37;6.10;;;19.80;99.90;;;;;;5059137;28;20190;-85
2023/05/23 07:12:54;;;;;;;31.30;7.10;;;19.90;99.90;;;;;;5118562;27;20186;-83
2023/05/23 07:15:20;;;;;;;29.73;6.67;;;19.90;99.90;;;;;;5068898;28;20278;-83
2023/05/23 07:17:47;;;;;;;31.57;7.20;;;19.90;99.90;;;;;;5069167;28;20186;-85
2023/05/23 07:20:13;;;;;;;29.87;6.70;;;20.00;99.90;;;;;;5080903;28;21349;-82
2023/05/23 07:22:44;;;;;;;28.73;6.53;;;20.00;99.90;;;;;;5097919;28;20692;-83
2023/05/23 07:25:14;;;;;;;34.70;8.20;;;20.00;99.90;;;;;;5105879;27;20198;-83
2023/05/23 07:27:44;;;;;;;33.57;7.40;;;20.10;99.90;;;;;;5089389;28;20289;-84
2023/05/23 07:30:15;;;;;;;33.37;7.70;;;20.10;99.90;;;;;;5110330;28;20594;-83
2023/05/23 07:32:41;;;;;;;31.17;7.53;;;20.10;99.90;;;;;;5086659;28;20194;-84
2023/05/23 07:35:08;;;;;;;27.77;6.77;;;20.10;99.90;;;;;;5095042;28;20215;-83
2023/05/23 07:38:08;;;;;;;31.13;7.40;;;20.10;99.90;;;;;;5118718;27;20190;-84
2023/05/23 07:40:36;;;;;;;27.93;7.17;;;20.20;99.90;;;;;;5098776;28;20217;-85
2023/05/23 07:43:02;;;;;;;37.50;7.23;;;20.30;99.90;;;;;;5065491;28;20194;-82
2023/05/23 07:45:28;;;;;;;34.53;7.63;;;20.40;99.90;;;;;;5098361;28;20201;-81
2023/05/23 07:47:55;;;;;;;26.33;7.97;;;20.40;99.90;;;;;;5073312;28;20194;-83
2023/05/23 07:50:21;;;;;;;25.97;6.37;;;20.40;99.90;;;;;;5084089;28;20255;-82
2023/05/23 07:52:50;;;;;;;34.37;7.70;;;20.40;99.90;;;;;;5086182;28;20948;-83
2023/05/23 07:55:16;;;;;;;24.23;6.57;;;20.50;99.90;;;;;;5062002;28;20237;-83
2023/05/23 07:57:43;;;;;;;27.23;6.83;;;20.50;99.90;;;;;;5069615;28;20181;-82
2023/05/23 08:00:11;;;;;;;30.30;7.30;;;20.50;99.90;;;;;;5094083;28;20194;-83
2023/05/23 08:02:37;;;;;;;33.63;7.67;;;20.50;99.90;;;;;;5094150;28;20197;-82
2023/05/23 08:05:04;;;;;;;27.27;6.20;;;20.60;99.90;;;;;;5087549;28;20194;-82
2023/05/23 08:07:30;;;;;;;33.40;6.80;;;20.60;99.90;;;;;;5085384;28;20241;-86
2023/05/23 08:09:59;;;;;;;24.48;6.20;;;20.70;99.90;;;;;;5073742;28;20189;-83
2023/05/23 08:12:26;;;;;;;25.93;6.57;;;20.70;99.90;;;;;;5065778;28;20201;-83
2023/05/23 08:14:52;;;;;;;34.17;7.03;;;20.70;99.90;;;;;;5095252;28;20217;-83
2023/05/23 08:17:19;;;;;;;23.27;6.93;;;20.90;99.90;;;;;;5071882;28;20189;-84
2023/05/23 08:19:46;;;;;;;27.60;6.55;;;21.10;99.90;;;;;;5065730;28;20182;-83
2023/05/23 08:22:12;;;;;;;33.50;7.50;;;21.20;99.90;;;;;;5083120;28;20182;-83
2023/05/23 08:24:39;;;;;;;32.80;6.85;;;21.20;99.90;;;;;;5084639;28;20254;-84
2023/05/23 08:27:06;;;;;;;35.53;6.83;;;21.40;99.90;;;;;;5115444;27;20202;-84
2023/05/23 08:29:34;;;;;;;26.00;6.63;;;21.60;99.90;;;;;;5068198;28;20189;-85
2023/05/23 08:32:00;;;;;;;29.35;6.20;;;21.70;99.90;;;;;;5062140;28;20194;-84
2023/05/23 08:34:26;;;;;;;27.23;7.43;;;21.80;99.90;;;;;;5084976;28;20210;-89
2023/05/23 08:36:53;;;;;;;26.42;6.32;;;21.90;99.90;;;;;;5069791;28;20185;-83
2023/05/23 08:39:19;;;;;;;27.27;7.38;;;22.00;99.90;;;;;;5090541;28;20239;-83
2023/05/23 08:41:46;;;;;;;24.35;6.35;;;21.90;99.90;;;;;;5089073;28;20174;-81
2023/05/23 08:44:13;;;;;;;25.05;6.80;;;21.80;99.90;;;;;;5072038;28;20193;-83
2023/05/23 08:46:46;;;;;;;31.30;6.97;;;21.60;99.90;;;;;;5064160;28;20658;-85
2023/05/23 08:49:17;;;;;;;26.52;5.72;;;21.50;99.90;;;;;;5061400;28;20190;-83
2023/05/23 08:51:45;;;;;;;25.50;6.40;;;21.40;99.90;;;;;;5067602;28;20197;-83
2023/05/23 08:54:12;;;;;;;26.13;6.28;;;21.40;99.90;;;;;;5115756;27;20206;-83
2023/05/23 08:56:40;;;;;;;27.17;6.95;;;21.40;99.90;;;;;;5089553;28;20187;-84
2023/05/23 08:59:09;;;;;;;24.73;6.78;;;21.40;99.90;;;;;;5083797;28;20427;-85
2023/05/23 09:01:48;;;;;;;19.00;6.07;;;21.40;99.90;;;;;;5110743;27;20182;-83
2023/05/23 09:04:15;;;;;;;28.33;6.57;;;21.40;99.90;;;;;;5114343;27;20277;-84
2023/05/23 09:06:44;;;;;;;28.10;6.63;;;21.50;99.90;;;;;;5082986;28;20186;-82
2023/05/23 09:09:11;;;;;;;23.90;6.25;;;21.40;99.90;;;;;;5084881;28;20286;-84
2023/05/23 09:11:38;;;;;;;27.33;6.65;;;21.40;99.90;;;;;;5070252;28;20186;-83
2023/05/23 09:14:06;;;;;;;31.73;6.43;;;21.60;99.90;;;;;;5083676;28;20202;-85
2023/05/23 09:16:33;;;;;;;22.07;6.20;;;21.70;99.90;;;;;;5078495;28;20178;-83
2023/05/23 09:19:11;;;;;;;24.67;6.93;;;21.70;99.90;;;;;;5063529;28;20216;-84
2023/05/23 09:21:44;;;;;;;20.05;5.78;;;21.80;99.90;;;;;;5101368;27;20244;-83
2023/05/23 09:24:11;;;;;;;25.77;6.67;;;21.80;99.90;;;;;;5072062;28;20289;-84
2023/05/23 09:26:38;;;;;;;22.35;6.28;;;21.80;99.90;;;;;;5061238;28;20214;-83
2023/05/23 09:29:30;;;;;;;22.98;6.00;;;21.70;99.90;;;;;;5070127;28;20220;-83
2023/05/23 09:32:14;;;;;;;16.65;5.63;;;21.90;99.90;;;;;;5060978;28;20275;-84
2023/05/23 09:35:03;;;;;;;25.40;6.80;;;22.10;99.90;;;;;;5108410;27;20612;-85
2023/05/23 09:37:42;;;;;;;20.38;5.88;;;22.30;99.90;;;;;;5062747;28;20183;-85
2023/05/23 09:40:12;;;;;;;24.80;5.68;;;22.50;99.90;;;;;;5082312;28;20185;-83
2023/05/23 09:42:50;;;;;;;24.10;6.45;;;22.60;99.90;;;;;;5067199;28;20205;-82
2023/05/23 09:45:20;;;;;;;23.63;6.28;;;22.80;99.90;;;;;;5065581;28;20210;-83
2023/05/23 09:48:00;;;;;;;22.17;5.50;;;22.90;99.90;;;;;;5096353;28;20186;-84
2023/05/23 09:50:37;;;;;;;18.58;6.15;;;22.80;99.90;;;;;;5086502;28;20273;-83
2023/05/23 09:53:15;;;;;;;20.75;5.70;;;22.90;99.90;;;;;;5092325;28;20187;-86
2023/05/23 09:55:42;;;;;;;23.13;5.63;;;23.00;99.90;;;;;;5061957;28;20202;-84
2023/05/23 09:58:11;;;;;;;22.38;6.57;;;23.20;99.90;;;;;;5095648;28;20819;-83
2023/05/23 10:00:46;;;;;;;21.33;5.95;;;23.30;99.90;;;;;;5101098;28;20530;-86
2023/05/23 10:03:22;;;;;;;21.67;6.10;;;23.40;99.90;;;;;;5092020;28;20671;-83
2023/05/23 10:06:03;;;;;;;17.42;5.10;;;23.40;99.90;;;;;;5085973;28;20190;-87
2023/05/23 10:08:43;;;;;;;25.08;6.00;;;23.50;99.90;;;;;;5079376;28;20292;-82
2023/05/23 10:11:10;;;;;;;22.02;5.88;;;23.50;99.90;;;;;;5080656;28;20223;-82
2023/05/23 10:13:39;;;;;;;20.52;5.43;;;23.30;99.90;;;;;;5061290;28;20190;-88
2023/05/23 10:16:23;;;;;;;26.48;6.03;;;23.20;99.90;;;;;;5061324;28;20274;-83
2023/05/23 10:18:58;;;;;;;21.65;5.68;;;23.20;99.90;;;;;;5105912;27;20182;-83
2023/05/23 10:21:38;;;;;;;21.55;6.10;;;23.20;99.90;;;;;;5072963;28;20180;-84
2023/05/23 10:24:07;;;;;;;21.25;6.03;;;23.10;99.90;;;;;;5073391;28;20205;-83
2023/05/23 10:26:34;;;;;;;17.83;5.97;;;23.10;99.90;;;;;;5058720;28;20259;-84
2023/05/23 10:29:01;;;;;;;22.83;5.68;;;23.00;99.90;;;;;;5058074;28;20184;-82
2023/05/23 10:31:28;;;;;;;25.10;6.05;;;23.00;99.90;;;;;;5074513;28;20687;-81
2023/05/23 10:34:35;;;;;;;31.75;6.18;;;23.00;99.90;;;;;;5057702;28;20285;-82
2023/05/23 10:37:18;;;;;;;22.30;6.30;;;23.10;99.90;;;;;;5060627;28;20284;-84
2023/05/23 10:40:11;;;;;;;19.65;5.65;;;23.30;99.90;;;;;;5074575;28;20198;-85
2023/05/23 10:43:06;;;;;;;25.70;6.60;;;23.20;99.90;;;;;;5083055;28;20182;-87
2023/05/23 10:45:44;;;;;;;22.95;6.20;;;23.00;99.90;;;;;;5083417;28;20954;-85
2023/05/23 10:48:43;;;;;;;24.67;5.93;;;22.90;99.90;;;;;;5089978;28;20254;-83
2023/05/23 10:51:16;;;;;;;19.80;5.70;;;22.90;99.90;;;;;;5119630;27;20189;-83
2023/05/23 10:53:53;;;;;;;25.85;6.10;;;22.90;99.90;;;;;;5079504;28;20265;-81
2023/05/23 10:56:24;;;;;;;17.73;6.05;;;23.00;99.90;;;;;;5115500;27;20275;-84
2023/05/23 10:58:56;;;;;;;20.63;5.40;;;23.00;99.90;;;;;;5070729;28;20190;-85
2023/05/23 11:01:24;;;;;;;24.90;6.15;;;23.00;99.90;;;;;;5065688;28;20527;-84
2023/05/23 11:03:52;;;;;;;17.95;5.32;;;23.10;99.90;;;;;;5079154;28;20272;-84
2023/05/23 11:06:42;;;;;;;28.58;6.63;;;23.20;99.90;;;;;;5062411;28;20570;-85
2023/05/23 11:09:19;;;;;;;22.58;5.95;;;23.20;99.90;;;;;;5060888;28;20209;-82
2023/05/23 11:12:03;;;;;;;19.40;5.95;;;23.20;99.90;;;;;;5061740;28;20190;-85
2023/05/23 11:14:38;;;;;;;23.15;5.80;;;23.20;99.90;;;;;;5062372;28;20217;-85
2023/05/23 11:17:29;;;;;;;21.00;5.32;;;23.30;99.90;;;;;;5083658;28;20714;-82
2023/05/23 11:20:08;;;;;;;24.58;5.78;;;23.30;99.90;;;;;;5059115;28;20187;-83
2023/05/23 11:22:36;;;;;;;20.98;6.10;;;23.20;99.90;;;;;;5084202;28;20186;-83
2023/05/23 11:25:09;;;;;;;21.80;6.45;;;23.20;99.90;;;;;;5107052;27;20186;-83
2023/05/23 11:27:38;;;;;;;16.65;5.60;;;23.10;99.90;;;;;;5078279;28;20556;-83
2023/05/23 11:30:12;;;;;;;25.58;6.32;;;23.10;99.90;;;;;;5090683;27;20275;-82
2023/05/23 11:32:39;;;;;;;21.52;6.03;;;23.10;99.90;;;;;;5060489;28;24660;-83
2023/05/23 11:35:10;;;;;;;18.50;5.53;;;23.10;99.90;;;;;;5064028;28;20209;-82
2023/05/23 11:37:40;;;;;;;17.95;5.80;;;23.20;99.90;;;;;;5095264;27;20186;-83
2023/05/23 11:40:33;;;;;;;22.67;5.75;;;23.20;99.90;;;;;;5080769;28;20193;-82
2023/05/23 11:43:03;;;;;;;19.70;6.10;;;23.20;99.90;;;;;;5082000;28;20890;-82
2023/05/23 11:45:31;;;;;;;28.02;6.38;;;23.20;99.90;;;;;;5079839;28;20189;-86
2023/05/23 11:47:58;;;;;;;24.38;7.40;;;23.20;99.90;;;;;;5066266;28;20193;-83
2023/05/23 11:50:25;;;;;;;22.25;5.63;;;23.20;99.90;;;;;;5085391;28;20216;-85
2023/05/23 11:52:54;;;;;;;21.73;6.53;;;23.20;99.90;;;;;;5119326;27;20205;-83
2023/05/23 11:55:22;;;;;;;22.30;5.80;;;23.10;99.90;;;;;;5070559;28;20202;-85
2023/05/23 11:57:50;;;;;;;23.08;5.97;;;23.10;99.90;;;;;;5082252;28;20197;-84
2023/05/23 12:00:18;;;;;;;19.50;5.82;;;23.10;99.90;;;;;;5084179;28;20205;-83
2023/05/23 12:02:49;;;;;;;22.52;6.65;;;23.10;99.90;;;;;;5089623;28;20182;-89
2023/05/23 12:05:16;;;;;;;29.45;6.13;;;23.10;99.90;;;;;;5066935;28;20194;-84
2023/05/23 12:07:48;;;;;;;27.10;6.07;;;23.20;99.90;;;;;;5084844;28;20178;-82
2023/05/23 12:10:21;;;;;;;25.52;6.18;;;23.20;99.90;;;;;;5112159;27;20750;-85
2023/05/23 12:12:47;;;;;;;22.08;5.93;;;23.30;99.90;;;;;;5064318;28;20189;-85
2023/05/23 12:15:14;;;;;;;20.35;5.35;;;23.20;99.90;;;;;;5092018;27;20301;-86
2023/05/23 12:17:45;;;;;;;18.73;6.15;;;23.10;99.90;;;;;;5079507;28;20341;-83
2023/05/23 12:20:12;;;;;;;19.20;5.72;;;23.00;99.90;;;;;;5092041;28;20320;-84
2023/05/23 12:22:38;;;;;;;25.50;6.43;;;23.00;99.90;;;;;;5073254;28;20221;-84
2023/05/23 12:25:10;;;;;;;22.60;5.80;;;23.00;99.90;;;;;;5062682;28;20194;-83
2023/05/23 12:27:39;;;;;;;18.75;5.50;;;23.00;99.90;;;;;;5096752;28;20202;-84
2023/05/23 12:30:09;;;;;;;21.95;5.70;;;23.10;99.90;;;;;;5080689;28;20563;-85
2023/05/23 12:32:40;;;;;;;20.83;6.00;;;23.00;99.90;;;;;;5109159;27;20213;-83
2023/05/23 12:35:12;;;;;;;23.60;6.20;;;22.90;99.90;;;;;;5081308;28;20723;-84
2023/05/23 12:37:46;;;;;;;25.73;6.55;;;22.80;99.90;;;;;;5060676;28;20178;-83
2023/05/23 12:40:20;;;;;;;25.08;5.80;;;22.80;99.90;;;;;;5058633;28;20298;-83
2023/05/23 12:42:56;;;;;;;21.65;5.78;;;22.80;99.90;;;;;;5100769;27;20186;-84
2023/05/23 12:45:31;;;;;;;12.25;4.78;;;22.60;99.90;;;;;;5075807;28;20190;-83
2023/05/23 12:47:59;;;;;;;17.52;5.40;;;22.60;99.90;;;;;;5054540;28;20243;-83
2023/05/23 12:50:26;;;;;;;17.10;5.78;;;22.60;99.90;;;;;;5056474;28;20897;-84
2023/05/23 12:52:52;;;;;;;21.65;5.70;;;22.70;99.90;;;;;;5093275;27;20502;-84
2023/05/23 12:55:19;;;;;;;18.15;5.97;;;22.60;99.90;;;;;;5089201;27;20277;-83
2023/05/23 12:57:50;;;;;;;25.20;5.50;;;22.60;99.90;;;;;;5072707;28;20182;-84
2023/05/23 13:00:18;;;;;;;21.65;5.82;;;22.60;99.90;;;;;;5065429;28;20652;-84